sensor_id;sensor_type;location;lat;lon;timestamp;pressure;altitude;pressure_sealevel;temperature;humidity
64616;BME280;51027;42.162;24.754;2024-03-06T04:33:05;99598.47;;;7.89;100.00
64616;BME280;51027;42.162;24.754;2024-03-06T04:35:31;99546.84;;;7.61;100.00
64616;BME280;51027;42.162;24.754;2024-03-06T04:37:56;99594.78;;;7.66;100.00
64616;BME280;51027;42.162;24.754;2024-03-06T04:40:21;99577.13;;;7.71;100.00
64616;BME280;51027;42.162;24.754;2024-03-06T04:42:48;99575.47;;;7.69;100.00
64616;BME280;51027;42.162;24.754;2024-03-06T04:45:17;99601.69;;;7.98;100.00
64616;BME280;51027;42.162;24.754;2024-03-06T04:47:43;99628.50;;;8.08;100.00
64616;BME280;51027;42.162;24.754;2024-03-06T04:50:12;99610.13;;;8.08;100.00
64616;BME280;51027;42.162;24.754;2024-03-06T04:52:40;99629.75;;;7.95;100.00
64616;BME280;51027;42.162;24.754;2024-03-06T04:55:06;99627.13;;;7.95;100.00
64616;BME280;51027;42.162;24.754;2024-03-06T04:57:32;99602.53;;;7.69;100.00
64616;BME280;51027;42.162;24.754;2024-03-06T04:59:58;99608.00;;;7.62;100.00
64616;BME280;51027;42.162;24.754;2024-03-06T05:02:31;99610.63;;;7.31;100.00
64616;BME280;51027;42.162;24.754;2024-03-06T05:05:00;99613.56;;;7.18;100.00
64616;BME280;51027;42.162;24.754;2024-03-06T05:07:28;99636.41;;;7.44;100.00
64616;BME280;51027;42.162;24.754;2024-03-06T05:09:55;99634.22;;;7.29;100.00
64616;BME280;51027;42.162;24.754;2024-03-06T05:12:20;99643.03;;;7.27;100.00
64616;BME280;51027;42.162;24.754;2024-03-06T05:14:45;99626.72;;;7.17;100.00
64616;BME280;51027;42.162;24.754;2024-03-06T05:17:11;99643.06;;;7.25;100.00
64616;BME280;51027;42.162;24.754;2024-03-06T05:19:36;99657.06;;;6.90;100.00
64616;BME280;51027;42.162;24.754;2024-03-06T05:22:02;99640.22;;;7.00;100.00
64616;BME280;51027;42.162;24.754;2024-03-06T05:24:29;99642.97;;;6.96;100.00
64616;BME280;51027;42.162;24.754;2024-03-06T05:26:54;99655.13;;;6.98;100.00
64616;BME280;51027;42.162;24.754;2024-03-06T05:29:20;99643.00;;;7.28;100.00
64616;BME280;51027;42.162;24.754;2024-03-06T05:31:45;99669.63;;;7.44;100.00
64616;BME280;51027;42.162;24.754;2024-03-06T05:34:11;99653.28;;;7.36;100.00
64616;BME280;51027;42.162;24.754;2024-03-06T05:36:38;99655.19;;;7.29;100.00
64616;BME280;51027;42.162;24.754;2024-03-06T05:39:04;99664.94;;;7.57;100.00
64616;BME280;51027;42.162;24.754;2024-03-06T05:41:40;99676.75;;;7.71;100.00
64616;BME280;51027;42.162;24.754;2024-03-06T05:44:06;99673.72;;;7.85;100.00
64616;BME280;51027;42.162;24.754;2024-03-06T05:46:32;99674.16;;;8.01;100.00
64616;BME280;51027;42.162;24.754;2024-03-06T05:48:57;99681.03;;;8.05;100.00
64616;BME280;51027;42.162;24.754;2024-03-06T05:51:23;99687.81;;;8.12;100.00
64616;BME280;51027;42.162;24.754;2024-03-06T05:53:48;99688.53;;;8.17;100.00
64616;BME280;51027;42.162;24.754;2024-03-06T05:56:14;99691.03;;;8.22;100.00
64616;BME280;51027;42.162;24.754;2024-03-06T05:58:39;99681.84;;;7.76;100.00
64616;BME280;51027;42.162;24.754;2024-03-06T06:01:05;99685.16;;;7.83;100.00
64616;BME280;51027;42.162;24.754;2024-03-06T06:03:30;99677.31;;;8.12;100.00
64616;BME280;51027;42.162;24.754;2024-03-06T06:05:56;99677.97;;;8.20;100.00
64616;BME280;51027;42.162;24.754;2024-03-06T06:08:22;99697.34;;;8.74;100.00
64616;BME280;51027;42.162;24.754;2024-03-06T06:10:47;99684.03;;;8.80;100.00
64616;BME280;51027;42.162;24.754;2024-03-06T06:13:13;99690.09;;;8.54;100.00
64616;BME280;51027;42.162;24.754;2024-03-06T06:15:38;99694.19;;;8.62;100.00
64616;BME280;51027;42.162;24.754;2024-03-06T06:18:04;99696.53;;;8.72;100.00
64616;BME280;51027;42.162;24.754;2024-03-06T06:20:29;99703.31;;;8.51;100.00
64616;BME280;51027;42.162;24.754;2024-03-06T06:22:55;99698.13;;;8.48;100.00
64616;BME280;51027;42.162;24.754;2024-03-06T06:25:20;99668.28;;;8.52;100.00
64616;BME280;51027;42.162;24.754;2024-03-06T06:27:46;99686.53;;;7.96;100.00
64616;BME280;51027;42.162;24.754;2024-03-06T06:30:12;99704.44;;;8.42;100.00
64616;BME280;51027;42.162;24.754;2024-03-06T06:32:41;99710.09;;;9.64;100.00
64616;BME280;51027;42.162;24.754;2024-03-06T06:35:07;99703.81;;;10.16;100.00
64616;BME280;51027;42.162;24.754;2024-03-06T06:37:33;99711.66;;;10.41;100.00
64616;BME280;51027;42.162;24.754;2024-03-06T06:39:59;99700.03;;;10.47;100.00
64616;BME280;51027;42.162;24.754;2024-03-06T06:42:24;99710.78;;;11.08;100.00
64616;BME280;51027;42.162;24.754;2024-03-06T06:44:50;99717.03;;;11.47;100.00
64616;BME280;51027;42.162;24.754;2024-03-06T06:47:17;99713.31;;;11.51;100.00
64616;BME280;51027;42.162;24.754;2024-03-06T06:49:46;99719.03;;;11.20;100.00
64616;BME280;51027;42.162;24.754;2024-03-06T06:52:11;99716.28;;;10.80;100.00
64616;BME280;51027;42.162;24.754;2024-03-06T06:54:37;99699.28;;;12.31;100.00
64616;BME280;51027;42.162;24.754;2024-03-06T06:57:02;99717.44;;;13.81;99.67
64616;BME280;51027;42.162;24.754;2024-03-06T06:59:28;99698.75;;;14.18;94.73
64616;BME280;51027;42.162;24.754;2024-03-06T07:01:54;99724.56;;;14.63;90.90
64616;BME280;51027;42.162;24.754;2024-03-06T07:04:19;99711.94;;;14.35;92.04
64616;BME280;51027;42.162;24.754;2024-03-06T07:06:46;99741.19;;;13.48;100.00
64616;BME280;51027;42.162;24.754;2024-03-06T07:09:12;99734.34;;;13.62;98.27
64616;BME280;51027;42.162;24.754;2024-03-06T07:11:37;99726.31;;;14.31;94.62
64616;BME280;51027;42.162;24.754;2024-03-06T07:14:03;99709.56;;;15.09;90.44
64616;BME280;51027;42.162;24.754;2024-03-06T07:16:28;99730.34;;;15.01;90.29
64616;BME280;51027;42.162;24.754;2024-03-06T07:18:53;99729.25;;;14.89;91.89
64616;BME280;51027;42.162;24.754;2024-03-06T07:21:19;99733.78;;;13.90;98.50
64616;BME280;51027;42.162;24.754;2024-03-06T07:23:44;99720.16;;;15.25;94.75
64616;BME280;51027;42.162;24.754;2024-03-06T07:26:09;99718.53;;;13.77;100.00
64616;BME280;51027;42.162;24.754;2024-03-06T07:28:35;99690.78;;;13.51;100.00
64616;BME280;51027;42.162;24.754;2024-03-06T07:31:02;99727.78;;;14.99;91.92
64616;BME280;51027;42.162;24.754;2024-03-06T07:33:28;99718.31;;;14.48;92.10
64616;BME280;51027;42.162;24.754;2024-03-06T07:35:53;99680.81;;;14.23;93.81
64616;BME280;51027;42.162;24.754;2024-03-06T07:38:18;99705.91;;;13.82;96.75
64616;BME280;51027;42.162;24.754;2024-03-06T07:40:44;99730.63;;;14.65;92.71
64616;BME280;51027;42.162;24.754;2024-03-06T07:43:10;99714.78;;;15.41;90.45
64616;BME280;51027;42.162;24.754;2024-03-06T07:45:36;99684.47;;;16.46;81.12
64616;BME280;51027;42.162;24.754;2024-03-06T07:48:02;99717.00;;;16.64;78.76
64616;BME280;51027;42.162;24.754;2024-03-06T07:50:27;99712.41;;;15.96;79.94
64616;BME280;51027;42.162;24.754;2024-03-06T07:52:53;99731.47;;;15.13;83.54
64616;BME280;51027;42.162;24.754;2024-03-06T07:55:20;99721.16;;;15.52;82.81
64616;BME280;51027;42.162;24.754;2024-03-06T07:57:47;99722.31;;;14.71;85.64
64616;BME280;51027;42.162;24.754;2024-03-06T08:00:12;99722.84;;;14.13;90.92
64616;BME280;51027;42.162;24.754;2024-03-06T08:02:45;99706.47;;;13.72;91.76
64616;BME280;51027;42.162;24.754;2024-03-06T08:05:15;99726.78;;;13.54;92.47
64616;BME280;51027;42.162;24.754;2024-03-06T08:07:41;99716.22;;;13.54;92.06
64616;BME280;51027;42.162;24.754;2024-03-06T08:10:11;99719.44;;;14.27;88.18
64616;BME280;51027;42.162;24.754;2024-03-06T08:12:44;99715.19;;;14.40;89.48
64616;BME280;51027;42.162;24.754;2024-03-06T08:15:11;99723.69;;;13.63;92.46
64616;BME280;51027;42.162;24.754;2024-03-06T08:17:39;99734.28;;;14.47;87.91
64616;BME280;51027;42.162;24.754;2024-03-06T08:20:07;99725.31;;;14.81;86.33
64616;BME280;51027;42.162;24.754;2024-03-06T08:22:38;99707.28;;;14.56;86.22
64616;BME280;51027;42.162;24.754;2024-03-06T08:25:12;99719.56;;;15.80;83.10
64616;BME280;51027;42.162;24.754;2024-03-06T08:27:41;99720.00;;;18.18;71.07
64616;BME280;51027;42.162;24.754;2024-03-06T08:30:08;99709.00;;;18.48;66.97
64616;BME280;51027;42.162;24.754;2024-03-06T08:32:35;99725.22;;;18.70;65.25
64616;BME280;51027;42.162;24.754;2024-03-06T08:35:02;99713.69;;;19.18;62.88
64616;BME280;51027;42.162;24.754;2024-03-06T08:37:28;99710.09;;;20.00;59.70
64616;BME280;51027;42.162;24.754;2024-03-06T08:39:53;99704.91;;;20.32;57.50
64616;BME280;51027;42.162;24.754;2024-03-06T08:42:18;99703.75;;;19.20;60.69
64616;BME280;51027;42.162;24.754;2024-03-06T08:44:44;99708.91;;;20.71;57.17
64616;BME280;51027;42.162;24.754;2024-03-06T08:47:11;99704.53;;;20.70;57.47
64616;BME280;51027;42.162;24.754;2024-03-06T08:49:36;99719.72;;;21.68;55.02
64616;BME280;51027;42.162;24.754;2024-03-06T08:52:02;99711.97;;;21.95;54.20
64616;BME280;51027;42.162;24.754;2024-03-06T08:54:27;99702.78;;;22.09;53.16
64616;BME280;51027;42.162;24.754;2024-03-06T08:56:53;99708.75;;;19.83;56.83
64616;BME280;51027;42.162;24.754;2024-03-06T08:59:23;99715.25;;;21.99;53.28
64616;BME280;51027;42.162;24.754;2024-03-06T09:01:51;99704.53;;;21.36;53.84
64616;BME280;51027;42.162;24.754;2024-03-06T09:04:17;99691.56;;;18.81;59.55
64616;BME280;51027;42.162;24.754;2024-03-06T09:06:43;99704.69;;;19.32;61.06
64616;BME280;51027;42.162;24.754;2024-03-06T09:09:08;99684.97;;;17.46;67.42
64616;BME280;51027;42.162;24.754;2024-03-06T09:11:34;99693.28;;;18.20;65.02
64616;BME280;51027;42.162;24.754;2024-03-06T09:14:00;99703.63;;;19.45;59.96
64616;BME280;51027;42.162;24.754;2024-03-06T09:16:26;99705.31;;;17.87;64.80
64616;BME280;51027;42.162;24.754;2024-03-06T09:18:52;99689.38;;;19.69;58.46
64616;BME280;51027;42.162;24.754;2024-03-06T09:21:17;99703.44;;;20.06;59.19
64616;BME280;51027;42.162;24.754;2024-03-06T09:23:43;99680.94;;;20.08;57.29
64616;BME280;51027;42.162;24.754;2024-03-06T09:26:08;99689.69;;;18.45;62.21
64616;BME280;51027;42.162;24.754;2024-03-06T09:28:33;99678.91;;;17.57;65.56
64616;BME280;51027;42.162;24.754;2024-03-06T09:30:59;99652.34;;;19.64;60.50
64616;BME280;51027;42.162;24.754;2024-03-06T09:33:25;99689.81;;;21.19;56.80
64616;BME280;51027;42.162;24.754;2024-03-06T09:35:50;99692.06;;;21.35;53.17
64616;BME280;51027;42.162;24.754;2024-03-06T09:38:16;99682.56;;;20.56;55.59
64616;BME280;51027;42.162;24.754;2024-03-06T09:40:41;99661.38;;;19.85;57.10
64616;BME280;51027;42.162;24.754;2024-03-06T09:43:07;99671.56;;;18.86;58.89
64616;BME280;51027;42.162;24.754;2024-03-06T09:45:33;99671.13;;;18.92;58.71
64616;BME280;51027;42.162;24.754;2024-03-06T09:47:59;99690.25;;;17.21;61.84
64616;BME280;51027;42.162;24.754;2024-03-06T09:50:24;99677.16;;;17.96;62.46
64616;BME280;51027;42.162;24.754;2024-03-06T09:52:52;99672.47;;;18.98;60.10
64616;BME280;51027;42.162;24.754;2024-03-06T09:55:19;99676.03;;;19.69;60.23
64616;BME280;51027;42.162;24.754;2024-03-06T09:57:45;99668.09;;;21.54;54.29
64616;BME280;51027;42.162;24.754;2024-03-06T10:00:14;99682.81;;;22.02;52.81
64616;BME280;51027;42.162;24.754;2024-03-06T10:02:57;99671.53;;;19.34;59.22
64616;BME280;51027;42.162;24.754;2024-03-06T10:05:30;99663.81;;;19.18;61.42
64616;BME280;51027;42.162;24.754;2024-03-06T10:08:00;99652.91;;;18.50;63.79
64616;BME280;51027;42.162;24.754;2024-03-06T10:10:26;99631.25;;;20.06;59.09
64616;BME280;51027;42.162;24.754;2024-03-06T10:12:52;99662.28;;;22.12;50.10
64616;BME280;51027;42.162;24.754;2024-03-06T10:15:18;99662.81;;;25.03;44.84
64616;BME280;51027;42.162;24.754;2024-03-06T10:17:44;99656.66;;;22.65;48.46
64616;BME280;51027;42.162;24.754;2024-03-06T10:20:21;99663.47;;;21.24;49.83
64616;BME280;51027;42.162;24.754;2024-03-06T10:22:52;99655.22;;;23.40;46.65
64616;BME280;51027;42.162;24.754;2024-03-06T10:25:21;99638.88;;;22.74;47.27
64616;BME280;51027;42.162;24.754;2024-03-06T10:28:02;99644.50;;;21.90;49.59
64616;BME280;51027;42.162;24.754;2024-03-06T10:30:28;99628.91;;;23.90;44.88
64616;BME280;51027;42.162;24.754;2024-03-06T10:32:53;99601.16;;;25.17;40.74
64616;BME280;51027;42.162;24.754;2024-03-06T10:35:20;99628.75;;;23.35;43.84
64616;BME280;51027;42.162;24.754;2024-03-06T10:37:46;99645.56;;;21.36;48.17
64616;BME280;51027;42.162;24.754;2024-03-06T10:40:15;99612.81;;;21.00;49.15
64616;BME280;51027;42.162;24.754;2024-03-06T10:42:41;99629.81;;;23.81;45.27
64616;BME280;51027;42.162;24.754;2024-03-06T10:45:08;99631.47;;;24.01;43.17
64616;BME280;51027;42.162;24.754;2024-03-06T10:47:39;99630.66;;;22.65;45.36
64616;BME280;51027;42.162;24.754;2024-03-06T10:50:05;99614.16;;;22.70;45.31
64616;BME280;51027;42.162;24.754;2024-03-06T10:52:36;99583.13;;;24.37;42.27
64616;BME280;51027;42.162;24.754;2024-03-06T10:55:04;99612.59;;;23.54;43.04
64616;BME280;51027;42.162;24.754;2024-03-06T10:57:30;99603.53;;;21.58;47.02
64616;BME280;51027;42.162;24.754;2024-03-06T10:59:56;99610.28;;;21.20;47.22
64616;BME280;51027;42.162;24.754;2024-03-06T11:02:25;99613.56;;;20.59;48.54
64616;BME280;51027;42.162;24.754;2024-03-06T11:04:53;99606.81;;;20.44;48.84
64616;BME280;51027;42.162;24.754;2024-03-06T11:07:19;99605.59;;;20.26;50.17
64616;BME280;51027;42.162;24.754;2024-03-06T11:09:44;99595.78;;;21.02;49.28
64616;BME280;51027;42.162;24.754;2024-03-06T11:12:32;99601.28;;;21.63;48.13
64616;BME280;51027;42.162;24.754;2024-03-06T11:14:57;99589.88;;;23.01;43.95
64616;BME280;51027;42.162;24.754;2024-03-06T11:17:26;99578.25;;;22.71;42.94
64616;BME280;51027;42.162;24.754;2024-03-06T11:28:22;99592.19;;;25.78;35.72
64616;BME280;51027;42.162;24.754;2024-03-06T11:30:58;99581.19;;;24.02;39.59
64616;BME280;51027;42.162;24.754;2024-03-06T11:36:27;99561.81;;;22.05;42.87
64616;BME280;51027;42.162;24.754;2024-03-06T11:38:59;99583.47;;;21.31;48.40
64616;BME280;51027;42.162;24.754;2024-03-06T11:41:46;99547.31;;;21.05;49.83
64616;BME280;51027;42.162;24.754;2024-03-06T11:44:16;99575.66;;;20.32;50.54
64616;BME280;51027;42.162;24.754;2024-03-06T11:46:49;99576.41;;;21.30;48.79
64616;BME280;51027;42.162;24.754;2024-03-06T11:49:16;99567.66;;;22.69;46.85
64616;BME280;51027;42.162;24.754;2024-03-06T11:51:57;99557.19;;;21.67;48.24
64616;BME280;51027;42.162;24.754;2024-03-06T11:54:24;99570.34;;;21.28;49.56
64616;BME280;51027;42.162;24.754;2024-03-06T11:56:53;99559.50;;;20.77;52.22
64616;BME280;51027;42.162;24.754;2024-03-06T11:59:45;99561.44;;;21.07;51.90
64616;BME280;51027;42.162;24.754;2024-03-06T12:02:11;99562.13;;;20.88;50.54
64616;BME280;51027;42.162;24.754;2024-03-06T12:04:40;99548.00;;;22.59;47.77
64616;BME280;51027;42.162;24.754;2024-03-06T12:07:07;99566.25;;;21.13;50.87
64616;BME280;51027;42.162;24.754;2024-03-06T12:09:34;99559.28;;;22.43;47.54
64616;BME280;51027;42.162;24.754;2024-03-06T12:12:00;99559.50;;;20.33;52.37
64616;BME280;51027;42.162;24.754;2024-03-06T12:14:27;99560.31;;;20.88;51.12
64616;BME280;51027;42.162;24.754;2024-03-06T12:17:00;99563.63;;;21.22;50.15
64616;BME280;51027;42.162;24.754;2024-03-06T12:19:31;99523.22;;;19.52;53.18
64616;BME280;51027;42.162;24.754;2024-03-06T12:22:01;99552.69;;;19.40;55.18
64616;BME280;51027;42.162;24.754;2024-03-06T12:24:28;99544.13;;;19.01;55.69
64616;BME280;51027;42.162;24.754;2024-03-06T12:27:01;99544.22;;;20.02;54.17
64616;BME280;51027;42.162;24.754;2024-03-06T12:29:31;99555.28;;;19.52;55.78
64616;BME280;51027;42.162;24.754;2024-03-06T12:31:58;99545.38;;;19.19;56.49
64616;BME280;51027;42.162;24.754;2024-03-06T12:34:23;99543.19;;;19.13;57.89
64616;BME280;51027;42.162;24.754;2024-03-06T12:36:49;99553.53;;;20.30;55.83
64616;BME280;51027;42.162;24.754;2024-03-06T12:39:15;99542.97;;;19.39;57.35
64616;BME280;51027;42.162;24.754;2024-03-06T12:41:46;99537.19;;;19.56;57.18
64616;BME280;51027;42.162;24.754;2024-03-06T12:44:11;99554.09;;;19.79;56.31
64616;BME280;51027;42.162;24.754;2024-03-06T12:46:36;99543.91;;;20.50;56.20
64616;BME280;51027;42.162;24.754;2024-03-06T12:49:02;99542.44;;;22.22;50.79
64616;BME280;51027;42.162;24.754;2024-03-06T12:51:27;99547.41;;;20.82;53.51
64616;BME280;51027;42.162;24.754;2024-03-06T12:53:53;99549.06;;;20.19;54.68
64616;BME280;51027;42.162;24.754;2024-03-06T12:56:18;99543.75;;;18.94;57.99
64616;BME280;51027;42.162;24.754;2024-03-06T12:58:44;99553.91;;;18.89;59.37
64616;BME280;51027;42.162;24.754;2024-03-06T13:01:10;99534.63;;;19.43;57.14
64616;BME280;51027;42.162;24.754;2024-03-06T13:03:38;99557.47;;;19.01;58.53
64616;BME280;51027;42.162;24.754;2024-03-06T13:06:04;99551.16;;;19.60;56.95
64616;BME280;51027;42.162;24.754;2024-03-06T13:08:30;99557.16;;;19.28;57.98
64616;BME280;51027;42.162;24.754;2024-03-06T13:10:56;99539.47;;;18.81;59.54
64616;BME280;51027;42.162;24.754;2024-03-06T13:13:22;99548.03;;;18.73;59.60
64616;BME280;51027;42.162;24.754;2024-03-06T13:15:50;99549.38;;;18.55;59.35
64616;BME280;51027;42.162;24.754;2024-03-06T13:18:15;99556.38;;;20.06;55.26
64616;BME280;51027;42.162;24.754;2024-03-06T13:20:41;99545.94;;;20.03;55.66
64616;BME280;51027;42.162;24.754;2024-03-06T13:23:06;99533.53;;;19.46;56.70
64616;BME280;51027;42.162;24.754;2024-03-06T13:25:31;99486.34;;;19.00;57.73
64616;BME280;51027;42.162;24.754;2024-03-06T13:27:57;99525.88;;;18.60;58.04
64616;BME280;51027;42.162;24.754;2024-03-06T13:30:22;99545.72;;;20.38;54.48
64616;BME280;51027;42.162;24.754;2024-03-06T13:32:50;99539.72;;;20.13;54.23
64616;BME280;51027;42.162;24.754;2024-03-06T13:35:16;99554.22;;;19.66;55.09
64616;BME280;51027;42.162;24.754;2024-03-06T13:37:42;99557.84;;;20.96;52.02
64616;BME280;51027;42.162;24.754;2024-03-06T13:40:09;99550.38;;;22.53;49.06
64616;BME280;51027;42.162;24.754;2024-03-06T13:42:37;99562.25;;;22.40;49.48
64616;BME280;51027;42.162;24.754;2024-03-06T13:45:03;99544.59;;;21.98;49.33
64616;BME280;51027;42.162;24.754;2024-03-06T13:47:30;99549.69;;;20.00;53.67
64616;BME280;51027;42.162;24.754;2024-03-06T13:49:55;99545.69;;;19.95;53.59
64616;BME280;51027;42.162;24.754;2024-03-06T13:52:21;99558.13;;;20.39;53.37
64616;BME280;51027;42.162;24.754;2024-03-06T13:54:48;99551.16;;;21.84;50.24
64616;BME280;51027;42.162;24.754;2024-03-06T13:57:14;99547.38;;;21.35;50.67
64616;BME280;51027;42.162;24.754;2024-03-06T13:59:39;99529.88;;;20.89;50.88
64616;BME280;51027;42.162;24.754;2024-03-06T14:02:06;99542.41;;;21.10;51.22
64616;BME280;51027;42.162;24.754;2024-03-06T14:04:31;99549.13;;;19.17;54.98
64616;BME280;51027;42.162;24.754;2024-03-06T14:06:57;99547.94;;;18.86;56.04
64616;BME280;51027;42.162;24.754;2024-03-06T14:09:23;99541.94;;;19.06;56.46
64616;BME280;51027;42.162;24.754;2024-03-06T14:11:50;99552.25;;;20.13;54.15
64616;BME280;51027;42.162;24.754;2024-03-06T14:14:16;99559.19;;;20.59;52.17
64616;BME280;51027;42.162;24.754;2024-03-06T14:16:41;99555.66;;;18.54;56.13
64616;BME280;51027;42.162;24.754;2024-03-06T14:19:08;99545.56;;;17.60;58.25
64616;BME280;51027;42.162;24.754;2024-03-06T14:21:33;99557.97;;;16.96;61.77
64616;BME280;51027;42.162;24.754;2024-03-06T14:24:00;99548.69;;;16.49;64.12
64616;BME280;51027;42.162;24.754;2024-03-06T14:26:30;99557.06;;;16.16;66.05
64616;BME280;51027;42.162;24.754;2024-03-06T14:28:55;99540.97;;;15.91;67.10
64616;BME280;51027;42.162;24.754;2024-03-06T14:31:22;99547.69;;;16.37;67.65
64616;BME280;51027;42.162;24.754;2024-03-06T14:33:47;99553.59;;;15.87;69.37
64616;BME280;51027;42.162;24.754;2024-03-06T14:36:14;99558.13;;;15.99;70.92
64616;BME280;51027;42.162;24.754;2024-03-06T14:38:39;99552.75;;;16.28;68.85
64616;BME280;51027;42.162;24.754;2024-03-06T14:41:05;99557.59;;;15.66;73.20
64616;BME280;51027;42.162;24.754;2024-03-06T14:43:32;99541.03;;;14.74;79.91
64616;BME280;51027;42.162;24.754;2024-03-06T14:46:00;99548.31;;;14.70;83.64
64616;BME280;51027;42.162;24.754;2024-03-06T14:48:25;99565.19;;;14.37;86.41
64616;BME280;51027;42.162;24.754;2024-03-06T14:50:51;99568.94;;;14.18;88.19
64616;BME280;51027;42.162;24.754;2024-03-06T14:53:16;99557.00;;;14.26;88.15
64616;BME280;51027;42.162;24.754;2024-03-06T14:55:42;99554.53;;;14.23;88.55
64616;BME280;51027;42.162;24.754;2024-03-06T14:58:07;99523.84;;;14.03;88.62
64616;BME280;51027;42.162;24.754;2024-03-06T15:00:33;99574.28;;;15.09;83.90
64616;BME280;51027;42.162;24.754;2024-03-06T15:02:58;99569.19;;;15.20;80.12
64616;BME280;51027;42.162;24.754;2024-03-06T15:05:26;99555.38;;;14.24;84.67
64616;BME280;51027;42.162;24.754;2024-03-06T15:07:52;99578.72;;;15.53;78.39
64616;BME280;51027;42.162;24.754;2024-03-06T15:10:17;99577.41;;;15.89;76.95
64616;BME280;51027;42.162;24.754;2024-03-06T15:12:43;99527.78;;;14.74;78.40
64616;BME280;51027;42.162;24.754;2024-03-06T15:15:09;99581.44;;;14.16;83.11
64616;BME280;51027;42.162;24.754;2024-03-06T15:17:35;99575.78;;;13.90;83.67
64616;BME280;51027;42.162;24.754;2024-03-06T15:20:05;99575.47;;;13.63;84.95
64616;BME280;51027;42.162;24.754;2024-03-06T15:22:34;99586.13;;;14.74;80.31
64616;BME280;51027;42.162;24.754;2024-03-06T15:25:10;99586.22;;;14.56;79.48
64616;BME280;51027;42.162;24.754;2024-03-06T15:27:36;99561.56;;;13.60;82.25
64616;BME280;51027;42.162;24.754;2024-03-06T15:30:06;99583.06;;;13.53;84.77
64616;BME280;51027;42.162;24.754;2024-03-06T15:32:36;99581.75;;;13.45;85.78
64616;BME280;51027;42.162;24.754;2024-03-06T15:35:04;99589.66;;;13.29;87.15
64616;BME280;51027;42.162;24.754;2024-03-06T15:37:30;99593.28;;;13.26;87.79
64616;BME280;51027;42.162;24.754;2024-03-06T15:39:57;99598.75;;;13.23;87.87
64616;BME280;51027;42.162;24.754;2024-03-06T15:42:24;99592.19;;;13.13;88.66
64616;BME280;51027;42.162;24.754;2024-03-06T15:44:50;99598.09;;;13.01;89.80
64616;BME280;51027;42.162;24.754;2024-03-06T15:47:17;99603.59;;;12.96;90.94
64616;BME280;51027;42.162;24.754;2024-03-06T15:49:43;99593.09;;;12.95;91.76
64616;BME280;51027;42.162;24.754;2024-03-06T15:52:12;99600.91;;;12.98;91.67
64616;BME280;51027;42.162;24.754;2024-03-06T15:54:38;99608.91;;;12.79;93.30
64616;BME280;51027;42.162;24.754;2024-03-06T15:57:04;99599.78;;;12.67;94.27
64616;BME280;51027;42.162;24.754;2024-03-06T15:59:33;99607.16;;;12.61;94.92
64616;BME280;51027;42.162;24.754;2024-03-06T16:01:59;99601.72;;;12.64;95.28
64616;BME280;51027;42.162;24.754;2024-03-06T16:04:24;99606.81;;;12.50;95.51
64616;BME280;51027;42.162;24.754;2024-03-06T16:06:51;99609.94;;;12.58;95.79
64616;BME280;51027;42.162;24.754;2024-03-06T16:09:16;99623.22;;;12.56;96.33
64616;BME280;51027;42.162;24.754;2024-03-06T16:11:42;99602.75;;;12.43;96.20
64616;BME280;51027;42.162;24.754;2024-03-06T16:14:08;99607.88;;;12.46;96.03
64616;BME280;51027;42.162;24.754;2024-03-06T16:16:33;99598.84;;;12.32;96.31
64616;BME280;51027;42.162;24.754;2024-03-06T16:18:58;99614.16;;;12.43;96.44
64616;BME280;51027;42.162;24.754;2024-03-06T16:21:24;99628.66;;;12.34;97.13
64616;BME280;51027;42.162;24.754;2024-03-06T16:23:50;99622.50;;;12.17;97.82
64616;BME280;51027;42.162;24.754;2024-03-06T16:26:18;99621.56;;;12.18;98.99
64616;BME280;51027;42.162;24.754;2024-03-06T16:28:44;99621.25;;;12.05;99.61
64616;BME280;51027;42.162;24.754;2024-03-06T16:31:10;99635.19;;;12.08;99.61
64616;BME280;51027;42.162;24.754;2024-03-06T16:33:35;99611.00;;;11.99;99.89
64616;BME280;51027;42.162;24.754;2024-03-06T16:36:01;99638.75;;;12.07;99.81
64616;BME280;51027;42.162;24.754;2024-03-06T16:38:26;99628.09;;;11.90;99.69
64616;BME280;51027;42.162;24.754;2024-03-06T16:40:52;99641.38;;;11.89;99.21
64616;BME280;51027;42.162;24.754;2024-03-06T16:43:18;99644.47;;;11.78;99.14
64616;BME280;51027;42.162;24.754;2024-03-06T16:45:44;99637.41;;;11.78;99.26
64616;BME280;51027;42.162;24.754;2024-03-06T16:48:10;99635.41;;;11.65;98.42
64616;BME280;51027;42.162;24.754;2024-03-06T16:50:38;99640.16;;;11.57;98.53
64616;BME280;51027;42.162;24.754;2024-03-06T16:53:03;99639.28;;;11.56;99.84
64616;BME280;51027;42.162;24.754;2024-03-06T16:55:32;99649.50;;;11.43;100.00
64616;BME280;51027;42.162;24.754;2024-03-06T16:57:57;99634.34;;;11.28;100.00
64616;BME280;51027;42.162;24.754;2024-03-06T17:00:23;99646.75;;;11.26;100.00
64616;BME280;51027;42.162;24.754;2024-03-06T17:02:49;99645.28;;;11.19;100.00
64616;BME280;51027;42.162;24.754;2024-03-06T17:05:14;99651.56;;;11.16;100.00
64616;BME280;51027;42.162;24.754;2024-03-06T17:07:41;99652.41;;;11.17;100.00
64616;BME280;51027;42.162;24.754;2024-03-06T17:10:07;99662.09;;;11.16;100.00
64616;BME280;51027;42.162;24.754;2024-03-06T17:12:34;99636.75;;;10.92;100.00
64616;BME280;51027;42.162;24.754;2024-03-06T17:15:00;99658.66;;;10.94;100.00
64616;BME280;51027;42.162;24.754;2024-03-06T17:17:25;99657.44;;;11.01;100.00
64616;BME280;51027;42.162;24.754;2024-03-06T17:19:51;99652.53;;;10.93;100.00
64616;BME280;51027;42.162;24.754;2024-03-06T17:22:16;99664.63;;;10.98;100.00
64616;BME280;51027;42.162;24.754;2024-03-06T17:24:41;99649.03;;;10.71;100.00
64616;BME280;51027;42.162;24.754;2024-03-06T17:27:07;99660.03;;;10.81;100.00
64616;BME280;51027;42.162;24.754;2024-03-06T17:29:33;99651.06;;;10.64;100.00
64616;BME280;51027;42.162;24.754;2024-03-06T17:31:58;99664.75;;;10.73;100.00